Date,TemperatureHighF,TemperatureAvgF,TemperatureLowF,DewpointHighF,DewpointAvgF,DewpointLowF,HumidityHigh,HumidityAvg,HumidityLow,PressureMaxIn,PressureMinIn,WindSpeedMaxMPH,WindSpeedAvgMPH,GustSpeedMaxMPH,PrecipitationSumIn
2013-1-1,44.7,41.0,36.8,30.8,27.4,21.9,66,58,50,30.06,29.96,3,0,8,8.09
2013-1-2,39.3,35.1,29.9,28.9,19.0,11.4,66,52,38,30.27,30.04,7,1,14,8.09
2013-1-3,38.1,31.6,26.3,19.3,16.2,10.8,65,53,42,30.29,30.19,2,0,9,8.09
2013-1-4,44.0,35.0,27.3,22.9,19.2,16.9,69,53,37,30.26,30.16,6,1,13,8.09
2013-1-5,44.7,37.5,28.9,29.3,20.4,17.3,64,50,35,30.41,30.19,6,1,19,8.09
2013-1-6,51.9,42.9,31.0,32.6,27.9,24.8,84,57,38,30.23,30.07,6,0,15,8.09
2013-1-7,45.0,40.9,29.8,30.6,25.3,22.3,74,54,43,30.47,30.19,6,1,15,8.09
2013-1-8,53.8,40.2,28.8,33.8,29.4,22.2,80,67,41,30.45,30.40,4,0,11,8.09
2013-1-9,50.7,42.0,33.7,42.9,36.1,29.3,90,80,46,30.42,30.28,1,0,11,8.09
2013-1-10,54.3,48.1,39.1,30.4,27.5,20.8,63,45,27,30.64,30.41,4,0,13,8.09
2013-1-11,46.8,42.7,37.4,42.2,35.2,27.4,92,76,54,30.54,30.15,0,0,6,8.14
2013-1-12,56.9,47.1,42.7,49.7,43.7,40.8,95,88,75,30.22,30.14,2,0,6,8.14
2013-1-13,59.4,51.7,44.4,56.8,50.1,42.5,96,94,90,30.17,30.02,3,1,9,8.14
2013-1-14,61.1,54.7,41.5,58.8,47.4,36.1,97,77,57,30.35,30.00,8,2,22,8.26
2013-1-15,41.7,40.5,37.5,39.5,38.2,35.1,94,92,87,30.38,30.19,5,2,10,8.96
2013-1-16,42.9,39.5,36.3,41.6,37.9,34.3,95,94,92,30.19,29.90,5,1,11,9.25
2013-1-17,44.7,42.1,39.2,41.8,34.5,28.9,96,75,55,30.17,30.01,4,1,16,9.26
2013-1-18,39.2,35.0,30.8,30.2,17.7,7.4,71,50,31,30.51,30.09,8,2,19,9.26
2013-1-19,55.9,42.0,31.6,28.1,24.9,21.0,71,53,30,30.45,30.01,5,2,18,9.26
2013-1-20,58.9,46.6,37.0,33.4,19.1,-0.5,62,37,11,30.12,29.88,8,3,23,9.26
2013-1-21,45.5,37.5,31.3,26.2,16.9,9.4,51,43,29,30.14,29.83,8,2,21,9.26
2013-1-22,30.9,22.1,18.5,10.9,-5.7,-13.3,44,29,18,30.32,29.98,10,4,28,9.26
2013-1-23,27.9,21.5,13.5,9.8,-2.5,-7.8,58,36,21,30.38,30.18,4,1,15,9.26
2013-1-24,26.8,21.9,16.8,16.3,7.2,-5.3,80,56,25,30.55,30.12,9,2,24,9.26
2013-1-25,25.2,21.5,16.6,17.7,7.0,-3.0,78,55,34,30.55,30.11,5,0,14,9.26
2013-1-26,34.6,29.1,24.1,25.2,21.1,17.9,80,72,56,30.46,30.12,4,0,12,9.27
2013-1-27,38.3,30.6,24.5,22.4,18.6,15.6,80,62,41,30.63,30.47,3,0,10,9.27
2013-1-28,47.2,38.5,32.1,42.9,34.0,22.0,94,84,66,30.53,30.10,4,1,13,9.45
2013-1-29,68.6,55.4,43.1,53.6,48.1,40.4,95,78,57,30.17,30.03,4,1,10,9.45
2013-1-30,72.2,63.2,56.1,64.3,58.5,52.0,98,85,71,30.02,29.30,8,3,25,10.70
2013-1-31,64.0,44.5,30.2,63.4,28.3,10.9,98,55,32,29.96,29.23,10,3,26,11.31
2013-2-1,32.9,27.5,20.2,25.5,9.2,-1.8,83,47,28,30.42,29.85,12,3,25,11.31
2013-2-2,32.7,25.1,16.7,26.3,12.5,1.3,86,60,38,30.43,30.06,3,1,14,11.31
2013-2-3,34.9,31.4,26.3,30.3,26.0,17.5,89,80,54,30.05,29.88,3,0,19,11.31
2013-2-4,36.9,32.1,25.4,21.4,14.8,9.4,56,48,42,30.15,29.94,10,2,24,11.31
2013-2-5,43.4,37.4,32.0,28.8,25.2,20.6,73,61,50,29.98,29.89,1,0,5,11.31
2013-2-6,46.4,38.7,30.9,32.6,26.3,20.9,86,62,42,30.38,29.98,7,1,18,11.31
2013-2-7,41.4,35.8,28.8,30.1,23.7,20.6,74,62,50,30.48,30.24,5,1,14,11.31
2013-2-8,42.7,38.2,34.5,39.2,32.6,21.2,94,81,53,30.23,29.81,10,3,27,11.54
2013-2-9,41.5,35.3,29.7,22.0,16.5,10.0,57,47,29,30.42,29.96,12,5,30,11.54
2013-2-10,45.2,35.1,23.0,25.9,17.0,9.2,74,49,24,30.51,30.27,5,1,13,11.54
2013-2-11,56.9,47.1,38.8,52.4,43.4,26.5,96,87,49,30.27,29.77,4,1,13,11.66
2013-2-12,56.1,48.4,41.1,31.5,27.2,22.6,59,45,27,30.04,29.87,6,1,19,11.66
2013-2-13,46.9,40.3,34.7,37.1,29.9,24.2,93,68,50,30.00,29.72,4,1,13,11.86
2013-2-14,49.1,40.1,32.7,34.5,29.9,25.2,94,69,41,30.07,29.83,7,1,14,11.91
2013-2-15,59.1,44.5,34.9,38.5,32.5,28.5,90,67,32,30.08,29.94,8,1,21,12.00
2013-2-16,39.9,37.0,31.7,35.6,28.2,13.8,93,72,43,30.05,29.89,7,2,18,12.01
2013-2-17,33.3,28.9,25.1,15.9,9.1,0.9,62,44,28,30.24,29.89,9,4,26,12.01
2013-2-18,42.8,31.6,20.4,15.7,8.1,4.2,55,38,21,30.42,30.19,6,1,21,12.01
2013-2-19,46.5,40.7,36.8,41.7,30.3,15.0,87,68,39,30.20,29.78,6,1,21,12.06
2013-2-20,40.1,34.1,26.2,24.3,13.5,5.4,59,43,31,30.21,29.90,10,3,26,12.06
2013-2-21,39.5,31.2,24.7,15.4,11.9,5.7,55,45,32,30.36,30.17,9,2,20,12.06
2013-2-22,34.8,32.9,30.2,30.6,23.0,14.9,86,68,50,30.42,30.26,5,1,11,12.10
2013-2-23,45.4,39.7,34.3,43.8,37.4,17.2,96,92,47,30.25,29.87,4,1,10,12.14
2013-2-24,52.3,43.4,33.7,42.2,30.9,16.2,95,65,33,30.16,29.86,11,3,25,12.14
2013-2-25,46.9,37.1,27.2,24.8,20.7,17.2,73,53,35,30.26,30.16,6,0,12,12.14
2013-2-26,45.6,38.5,30.6,44.3,33.2,22.5,95,82,64,30.26,29.67,12,3,29,12.91
2013-2-27,56.9,48.2,40.4,45.0,38.7,32.7,96,72,44,29.75,29.59,7,2,15,12.94
2013-2-28,49.1,44.2,40.3,39.0,30.2,22.6,84,59,37,29.79,29.70,5,1,16,12.96
2013-3-1,45.8,41.6,37.4,30.6,27.3,22.7,68,57,42,29.94,29.78,9,2,19,12.96
2013-3-2,38.0,34.2,30.7,24.9,21.2,18.0,67,59,44,29.94,29.87,7,2,18,12.96
2013-3-3,43.2,34.8,29.4,21.0,17.5,13.5,67,50,31,29.97,29.85,10,3,27,12.96
2013-3-4,44.2,35.1,29.0,18.2,14.2,10.7,55,43,28,30.08,29.97,10,3,23,12.96
2013-3-5,52.2,40.7,29.6,32.7,17.1,7.3,84,41,17,30.12,29.85,5,1,15,12.97
2013-3-6,38.6,36.3,34.8,38.6,34.4,-13.3,100,94,11,30.04,29.65,10,5,23,13.61
2013-3-7,47.8,41.7,34.9,33.0,28.2,24.0,82,60,41,30.20,30.04,11,4,28,13.70
2013-3-8,49.5,42.6,36.9,28.9,26.6,24.1,68,54,39,30.31,30.19,12,5,31,13.70
2013-3-9,58.5,45.9,36.1,27.1,22.7,12.4,62,43,16,30.39,30.30,7,2,18,13.70
2013-3-10,62.7,49.1,32.9,33.4,23.2,12.6,77,41,15,30.37,30.25,6,1,14,13.70
2013-3-11,61.0,52.7,44.2,50.2,45.1,34.6,91,76,60,30.29,29.98,5,2,16,13.70
2013-3-12,58.3,54.0,43.1,57.3,45.7,30.8,98,75,50,30.02,29.77,11,4,22,14.66
2013-3-13,51.7,42.5,34.0,33.7,25.6,16.5,79,53,25,30.12,29.95,10,2,22,14.66
2013-3-14,46.7,38.6,32.4,19.2,15.6,10.1,53,40,24,30.18,30.08,11,3,24,14.66
2013-3-15,57.8,44.6,29.4,32.4,23.6,16.4,67,45,26,30.14,29.83,9,2,19,14.66
2013-3-16,61.5,49.1,40.4,47.8,37.1,31.3,79,64,48,29.96,29.69,5,1,12,14.66
2013-3-17,42.0,39.1,34.0,34.4,30.0,24.2,89,71,51,30.31,29.95,5,1,10,14.66
2013-3-18,39.2,37.1,32.3,36.9,31.5,20.1,94,81,47,30.36,29.94,6,2,14,15.06
2013-3-19,59.3,46.1,37.1,41.3,28.6,0.5,96,62,11,29.97,29.78,8,2,25,15.06
2013-3-20,53.7,44.9,33.5,24.2,11.7,1.9,49,27,15,30.05,29.82,8,2,21,15.06
2013-3-21,41.3,34.9,28.9,28.5,13.6,3.4,81,43,25,29.96,29.82,8,3,20,15.06
2013-3-22,48.2,37.3,27.4,22.9,14.2,8.9,51,40,25,30.05,29.93,9,2,22,15.06
2013-3-23,53.7,40.6,28.1,26.7,20.0,15.4,72,46,22,30.08,29.95,9,2,17,15.06
2013-3-24,43.8,38.5,32.5,33.1,22.6,18.1,91,55,37,30.05,29.71,5,1,10,15.06
2013-3-25,40.0,36.7,34.5,36.9,34.1,32.2,92,90,84,29.76,29.58,4,1,10,15.54
2013-3-26,51.1,42.2,33.0,37.0,31.0,21.8,94,68,33,30.05,29.76,9,2,18,15.56
2013-3-27,51.2,43.5,36.5,32.6,27.7,24.5,71,55,38,30.17,30.05,10,2,21,15.56
2013-3-28,50.1,43.1,33.8,33.1,28.7,25.4,73,57,42,30.28,30.14,10,2,29,15.56
2013-3-29,56.5,47.6,39.7,33.8,29.5,24.5,75,51,31,30.31,30.20,8,1,18,15.56
2013-3-30,59.7,48.8,38.4,30.5,25.9,17.7,66,43,21,30.27,30.16,7,1,14,15.56
2013-3-31,54.0,49.1,43.1,52.5,40.6,26.3,95,74,49,30.17,29.81,4,1,13,15.58
2013-4-1,65.9,52.1,40.8,46.8,39.8,23.1,95,67,35,30.03,29.80,10,2,22,15.59
2013-4-2,50.2,43.1,34.5,20.6,10.4,3.3,47,27,15,30.23,30.06,8,2,20,15.59
2013-4-3,52.6,41.3,30.0,26.0,12.3,1.2,65,33,12,30.43,30.23,9,2,23,15.59
2013-4-4,50.4,39.5,27.9,35.9,16.2,2.1,84,42,14,30.45,30.13,5,1,14,15.69
2013-4-5,64.9,49.6,39.0,40.8,30.0,14.8,94,57,17,30.13,29.87,9,3,19,15.89
2013-4-6,57.2,48.3,37.7,30.4,19.0,8.0,54,33,14,30.37,30.10,8,2,14,15.89
2013-4-7,71.9,56.0,40.0,40.9,35.0,27.8,72,47,30,30.32,30.04,9,3,26,15.89
2013-4-8,80.9,69.2,55.2,51.1,44.8,40.3,64,43,26,30.13,30.00,5,2,16,15.89
2013-4-9,85.2,75.2,62.3,58.2,52.6,49.4,70,47,30,30.14,29.99,6,2,17,15.89
2013-4-10,89.4,79.4,64.3,61.6,54.9,51.5,69,44,31,30.03,29.84,7,2,19,15.89
2013-4-11,86.5,74.7,59.1,63.5,57.5,50.7,84,57,33,29.94,29.78,9,2,19,15.89
2013-4-12,77.6,63.7,54.3,68.8,59.4,52.3,98,87,64,29.86,29.62,10,3,17,16.34
2013-4-13,69.3,58.3,45.4,51.6,41.1,36.0,86,55,32,30.00,29.82,6,1,17,16.34
2013-4-14,67.6,57.9,45.0,44.0,38.3,34.9,78,50,31,30.20,30.00,7,2,14,16.34
2013-4-15,64.6,60.4,56.7,52.9,47.3,42.7,73,62,55,30.33,30.18,6,2,15,16.34
2013-4-16,76.8,65.9,57.0,61.4,56.1,48.0,85,71,55,30.36,30.17,6,2,20,16.34
2013-4-17,77.8,68.3,60.2,64.4,59.9,56.2,95,76,55,30.28,30.17,7,2,13,16.40
2013-4-18,79.9,68.1,61.9,67.5,60.5,57.0,95,78,54,30.27,30.06,6,2,16,16.46
2013-4-19,78.4,68.6,53.2,68.9,62.7,50.3,94,82,65,30.06,29.67,7,2,20,17.57
2013-4-20,60.4,53.9,46.7,49.6,31.2,22.1,89,44,25,30.38,29.84,9,2,22,17.58
2013-4-21,55.2,47.9,40.2,27.6,22.7,14.5,56,38,20,30.63,30.39,8,2,16,17.58
2013-4-22,56.6,48.5,36.9,37.5,34.2,28.1,83,59,43,30.61,30.44,10,3,19,17.58
2013-4-23,60.6,52.4,47.0,45.4,41.5,35.4,79,67,53,30.44,30.18,7,2,11,17.58
2013-4-24,48.6,46.5,45.6,43.1,42.2,41.4,90,85,78,30.17,30.12,1,0,3,17.58
2013-4-28,61.3,59.9,58.2,53.8,49.2,44.4,83,68,57,30.28,30.19,2,0,9,17.64
2013-4-29,62.3,57.9,55.5,60.9,55.5,47.0,96,92,67,30.21,30.10,5,1,12,17.82
2013-4-30,60.3,57.8,55.6,58.5,55.8,51.2,96,93,82,30.33,30.14,6,2,14,17.88
2013-5-1,70.3,60.6,47.9,50.3,41.7,31.0,85,55,25,30.47,30.33,10,2,16,17.88
2013-5-2,69.0,57.0,45.3,50.7,45.0,42.0,92,66,41,30.49,30.37,7,2,15,17.88
2013-5-3,68.4,56.9,46.5,51.0,42.9,38.3,91,62,34,30.43,30.34,8,2,21,17.88
2013-5-4,67.9,57.9,48.1,48.6,42.6,39.1,82,59,37,30.38,30.23,8,3,17,17.88
2013-5-5,63.2,54.4,46.1,47.2,41.2,38.2,82,62,44,30.30,30.20,7,3,15,17.88
2013-5-6,63.1,57.1,51.7,58.8,52.6,45.9,93,85,78,30.23,30.10,8,4,17,17.88
2013-5-7,65.4,61.6,59.5,63.9,59.7,57.3,95,94,91,30.11,29.98,9,4,19,19.05
2013-5-8,71.0,61.8,57.4,61.7,57.6,52.3,95,87,59,30.06,29.98,4,0,15,19.17
2013-5-9,76.4,64.8,56.5,64.0,57.6,54.5,96,79,51,30.06,29.98,3,0,11,19.17
2013-5-10,85.0,71.8,57.3,65.4,59.7,54.0,94,69,35,30.07,29.92,4,0,17,19.84
2013-5-11,78.3,68.9,64.4,71.8,65.1,62.3,95,88,66,29.98,29.76,2,0,16,20.12
2013-5-12,65.8,60.0,48.9,64.0,41.0,26.7,94,54,24,30.09,29.81,8,2,20,20.13
2013-5-13,61.4,52.4,42.3,40.8,29.1,19.0,78,44,20,30.22,30.08,9,2,19,20.13
2013-5-14,62.2,47.8,39.6,41.8,33.7,29.4,80,60,30,30.27,30.19,5,1,13,20.13
2013-5-15,84.8,78.6,72.7,66.1,65.1,64.1,75,64,50,29.83,29.75,2,0,10,20.13
2013-5-16,84.5,74.7,64.8,70.4,61.3,56.8,79,64,42,29.99,29.82,4,0,15,20.13
2013-5-17,83.4,73.0,59.5,63.6,56.3,47.6,90,58,35,30.18,29.99,4,1,12,20.13
2013-5-18,69.5,64.1,60.8,61.5,58.2,52.1,96,82,54,30.29,30.19,4,1,10,20.22
2013-5-19,76.7,67.5,60.8,68.8,64.5,59.7,100,91,73,30.26,30.14,3,1,8,20.26
2013-5-20,82.8,73.5,67.5,73.5,69.0,66.5,99,87,66,30.17,30.04,2,0,9,20.35
2013-5-21,83.9,75.0,67.9,74.8,70.3,66.1,99,86,70,30.06,29.94,2,0,9,20.35
2013-5-22,88.0,78.3,69.9,77.3,71.7,64.7,98,81,63,29.99,29.89,4,1,12,20.36
2013-5-23,82.5,73.7,66.5,73.5,68.4,63.3,95,84,64,29.97,29.81,3,1,11,20.45
2013-5-24,66.2,58.0,49.4,64.0,47.4,32.5,97,69,48,30.22,29.81,9,4,25,20.52
2013-5-25,66.8,55.6,44.3,45.1,36.4,31.5,67,50,30,30.25,30.14,8,3,24,20.52
2013-5-26,72.7,60.7,46.9,47.0,37.9,29.9,75,46,21,30.27,30.18,8,1,16,20.52
2013-5-27,71.7,62.8,49.6,51.5,45.2,38.6,77,54,32,30.33,30.24,4,0,8,20.52
2013-5-28,85.0,68.8,58.3,72.1,61.7,50.9,96,79,57,30.25,30.12,5,0,8,20.82
2013-5-29,89.0,78.3,67.3,74.0,68.7,64.8,97,75,48,30.19,30.13,4,1,10,20.82
2013-5-30,90.7,80.9,68.6,74.3,68.7,63.9,90,67,47,30.24,30.16,3,0,11,20.82
2013-5-31,89.9,80.3,67.5,73.9,67.3,63.5,91,66,46,30.21,30.09,5,1,16,20.82
2013-6-1,90.9,81.5,70.0,74.4,68.7,64.4,86,66,50,30.10,29.98,3,1,14,20.82
2013-6-2,86.2,79.7,73.0,75.3,69.6,64.5,88,71,64,29.98,29.91,4,2,14,20.96
2013-6-5,70.0,68.8,67.7,55.7,54.6,53.2,62,61,59,30.14,30.12,1,0,7,21.79
2013-6-6,73.7,68.7,63.8,67.7,61.8,52.6,98,79,59,30.14,29.92,5,1,14,22.27
2013-6-7,72.2,69.7,67.3,72.0,69.5,66.7,100,99,98,29.91,29.67,5,1,12,23.31
2013-6-8,79.7,72.7,64.9,67.4,64.4,59.8,98,77,51,30.14,29.78,3,0,9,23.39
2013-6-9,81.6,74.7,65.5,72.5,67.7,62.4,92,79,63,30.24,30.14,5,1,13,23.43
2013-6-10,81.9,74.3,70.6,80.0,73.2,69.8,100,96,84,30.16,29.85,3,0,11,23.47
2013-6-11,83.6,75.6,68.0,72.6,68.0,65.2,99,79,56,29.91,29.84,4,1,11,23.51
2013-6-12,88.7,80.0,67.8,73.8,68.2,64.1,89,69,48,29.92,29.85,3,0,13,23.54
2013-6-13,87.5,76.4,68.7,76.0,69.3,58.1,96,79,60,29.86,29.55,6,1,20,23.58
2013-6-14,78.7,70.9,63.6,59.9,55.8,50.1,82,60,42,30.04,29.67,9,3,21,23.60
2013-6-15,82.0,73.4,61.2,65.6,59.0,55.1,86,62,42,30.13,30.03,5,1,13,23.62
2013-6-16,85.3,75.8,66.5,71.9,66.0,58.9,86,72,54,30.08,29.95,4,0,16,23.64
2013-6-17,87.1,78.8,71.0,74.5,70.2,65.0,91,76,51,30.02,29.93,2,0,9,23.66
2013-6-18,75.3,72.2,67.4,72.4,69.2,65.6,96,90,83,29.97,29.85,4,0,11,23.68
2013-6-19,76.8,70.7,66.4,66.8,65.2,62.5,97,83,67,30.20,29.95,3,0,9,23.70
2013-6-20,80.8,72.5,63.4,68.1,62.3,55.8,97,72,47,30.32,30.21,2,0,10,23.70
2013-6-21,83.4,72.3,59.5,63.1,57.2,52.6,88,61,40,30.35,30.28,3,0,11,23.72
2013-6-22,86.2,76.7,64.4,71.9,67.0,61.7,95,73,54,30.31,30.19,4,0,10,23.73
2013-6-23,84.8,76.6,70.8,75.8,71.3,67.2,97,84,67,30.24,30.13,3,0,7,23.79
2013-6-24,89.1,78.9,72.2,76.9,72.5,69.1,97,82,61,30.19,30.10,2,0,9,23.84
2013-6-25,91.0,81.9,71.2,77.1,72.6,63.7,97,75,53,30.10,29.96,4,0,19,23.86
2013-6-26,90.9,79.6,70.5,80.1,71.4,66.4,91,77,56,29.99,29.87,2,0,8,23.86
2013-6-27,82.6,75.9,70.6,75.3,72.1,68.8,98,88,78,29.90,29.69,3,0,10,23.86
2013-6-28,88.8,76.6,70.7,76.4,72.3,68.9,98,88,59,29.71,29.56,5,0,13,23.86
2013-6-29,87.1,78.2,66.9,74.3,68.3,64.2,100,74,49,29.76,29.60,2,0,8,23.86
2013-6-30,86.1,78.8,72.7,79.0,74.3,67.5,97,87,75,29.92,29.76,3,0,15,23.86
2013-7-1,83.9,77.3,72.1,77.7,74.0,71.0,99,90,71,30.04,29.91,2,0,10,23.86
2013-7-2,83.5,78.0,74.9,77.0,74.8,73.6,98,90,75,30.22,30.04,1,0,10,23.86
2013-7-3,86.9,78.0,73.1,80.1,75.9,72.3,100,94,75,30.29,30.22,3,0,10,23.86
2013-7-4,89.3,81.4,74.8,79.9,75.5,72.3,99,83,59,30.32,30.22,3,0,13,23.86
2013-7-5,89.6,82.6,74.3,78.4,74.7,72.1,95,78,61,30.29,30.19,4,0,12,23.86
2013-7-6,91.9,83.5,75.7,80.1,75.5,71.9,96,78,58,30.25,30.13,4,1,13,23.86
2013-7-7,90.7,81.3,73.3,79.6,74.5,69.9,96,81,61,30.17,30.06,4,1,12,23.86
2013-7-8,85.8,77.7,72.6,76.0,72.2,68.0,99,84,60,30.17,30.10,3,0,9,23.86
2013-7-9,86.4,79.2,72.9,76.8,73.9,70.7,96,84,69,30.17,30.06,0,0,4,23.86
2013-7-10,89.3,80.4,74.9,79.6,76.0,72.7,97,87,64,30.08,29.92,4,0,15,23.86
2013-7-11,85.8,78.9,74.5,74.9,72.7,69.6,97,82,60,29.99,29.91,4,0,7,23.86
2013-7-12,74.9,71.2,68.1,72.1,69.7,67.3,98,95,85,30.09,29.97,3,0,11,23.86
2013-7-13,85.2,77.5,70.8,77.2,72.6,70.0,98,86,70,30.32,30.09,2,0,11,23.86
2013-7-14,89.6,82.2,76.0,79.3,75.1,71.4,98,80,56,30.39,30.32,3,0,11,23.86
2013-7-15,92.5,83.9,74.1,79.3,74.7,72.4,96,76,53,30.36,30.25,4,0,9,23.86
2013-7-16,92.8,85.2,76.8,78.7,74.3,71.5,89,71,52,30.31,30.22,6,1,12,23.86
2013-7-17,93.4,85.4,77.8,79.2,74.4,71.5,89,71,50,30.27,30.16,4,1,12,23.86
2013-7-18,95.2,86.1,77.5,86.0,78.2,74.3,92,78,58,30.18,30.07,3,0,8,23.86
2013-7-19,95.4,87.6,79.0,83.2,79.1,76.2,94,77,61,30.08,29.95,2,0,7,23.86
2013-7-21,90.3,80.8,76.2,78.8,75.6,67.7,97,86,54,30.00,29.94,14,0,26,23.86
2013-7-22,88.7,80.4,74.0,78.5,75.5,70.8,99,86,66,29.99,29.83,3,0,9,23.86
2013-7-23,86.4,79.9,74.3,77.9,72.8,67.9,98,80,56,29.83,29.72,3,0,12,23.86
2013-7-24,83.1,77.5,71.8,71.8,67.9,61.3,89,73,57,29.97,29.75,5,1,11,23.86
2013-7-25,78.5,71.6,63.5,62.2,58.2,53.3,81,63,48,30.09,29.97,6,2,13,23.86
2013-7-26,83.3,73.6,63.5,69.0,63.4,60.0,94,72,50,30.16,30.08,3,0,8,23.86
2013-7-27,85.3,74.3,68.1,78.2,69.8,62.6,97,86,68,30.11,29.99,3,0,16,23.86
2013-7-28,83.5,76.1,71.2,74.9,71.7,68.6,98,87,62,30.04,29.95,3,0,7,23.86
2013-7-29,80.8,73.3,64.6,69.4,62.1,56.1,94,70,45,30.22,30.05,3,0,9,23.86
2013-7-30,82.1,73.5,63.7,66.7,62.1,58.0,88,68,51,30.29,30.19,0,0,1,23.86
2013-7-31,80.2,74.0,67.2,72.1,68.3,62.9,96,83,71,30.21,30.08,2,0,12,23.86
2013-8-1,84.9,75.3,70.2,75.7,71.7,69.3,100,89,62,30.08,29.87,3,0,8,23.86
2013-8-2,85.8,77.2,66.9,70.9,68.0,64.8,97,75,53,30.02,29.92,1,0,6,23.86
2013-8-3,80.3,73.1,69.4,72.0,68.0,66.3,93,85,66,30.03,29.99,3,0,10,23.86
2013-8-4,79.9,73.5,64.9,59.4,57.9,56.1,75,59,44,30.09,30.01,5,1,14,23.86
2013-8-5,79.7,70.6,59.7,62.5,57.8,52.5,88,66,41,30.16,30.07,3,0,8,23.86
2013-8-6,73.2,70.5,68.8,70.2,66.9,61.1,98,88,78,30.11,30.06,2,0,7,23.86
2013-8-7,84.8,80.4,77.9,76.1,74.5,73.4,87,83,75,30.08,30.05,1,0,6,23.86
2013-8-8,86.8,79.7,74.4,79.3,75.2,72.1,96,87,70,30.09,30.03,4,1,10,23.86
2013-8-9,91.1,83.1,76.3,81.7,76.6,72.9,97,82,63,30.03,29.92,5,1,16,23.86
2013-8-10,84.4,78.6,72.8,73.6,68.9,60.7,90,73,49,30.14,30.01,4,0,8,23.86
2013-8-11,84.3,78.4,72.9,74.0,70.6,66.8,94,78,57,30.17,30.06,3,0,11,23.86
2013-8-12,87.6,79.9,72.0,75.5,71.0,67.0,98,76,51,30.08,29.97,5,1,12,23.86
2013-8-13,84.5,77.8,71.3,75.8,72.9,69.5,99,85,63,29.97,29.80,4,0,11,23.86
2013-8-14,74.6,67.9,60.1,69.4,54.5,49.9,96,64,47,30.16,29.88,7,1,18,23.86
2013-8-15,77.1,66.8,56.3,58.0,54.1,48.5,94,66,37,30.24,30.14,4,0,8,23.86
2013-8-16,78.1,69.0,58.0,65.5,58.1,54.4,92,70,45,30.23,30.18,0,0,0,23.86
2013-8-17,79.5,75.7,73.0,63.8,60.1,57.6,73,59,48,30.29,30.26,3,0,9,23.86
2013-8-18,73.0,69.5,66.0,68.4,65.3,61.9,98,87,70,30.29,30.22,2,0,6,23.86
2013-8-19,75.5,69.8,63.4,69.6,66.2,61.7,98,89,80,30.23,30.13,2,0,8,23.86
2013-8-20,86.1,76.6,66.3,74.1,69.4,64.2,100,80,55,30.22,30.14,0,0,0,23.86
2013-8-21,88.8,79.0,70.7,77.7,73.2,68.9,99,83,59,30.25,30.13,2,0,10,23.86
2013-8-22,86.5,79.4,71.7,74.5,70.9,68.0,98,77,56,30.15,29.99,4,1,12,23.86
2013-8-23,76.7,72.0,65.3,73.4,67.8,62.5,97,87,73,30.17,29.99,1,0,8,23.86
2013-8-24,82.0,71.5,61.8,64.6,61.8,57.7,96,74,45,30.38,30.17,4,1,12,23.86
2013-8-25,81.8,72.2,63.9,68.8,62.2,57.5,96,73,52,30.45,30.32,3,0,11,23.86
2013-8-26,86.4,74.6,62.6,68.8,63.4,58.0,87,70,47,30.34,30.08,1,0,5,23.86
2013-8-27,89.7,79.7,71.6,76.0,71.5,66.8,96,77,60,30.07,29.94,5,0,11,23.86
2013-8-28,80.5,76.5,74.5,76.9,73.9,70.3,98,92,80,29.98,29.88,4,0,10,23.86
2013-8-29,83.9,77.1,73.0,74.4,72.1,68.8,99,86,61,30.07,29.89,5,0,15,23.86
2013-8-30,85.6,77.6,70.0,74.9,71.5,68.6,98,82,62,30.10,29.95,5,0,12,23.86
2013-8-31,89.4,79.6,71.0,77.0,72.8,68.7,95,80,61,29.97,29.86,3,0,12,23.86
2013-9-1,89.9,80.1,70.6,76.6,72.6,68.6,96,79,59,29.91,29.82,0,0,2,23.86
2013-9-2,88.9,79.5,71.7,77.3,73.6,70.1,100,83,62,29.88,29.79,3,0,12,23.86
2013-9-3,84.5,77.7,69.7,74.7,65.5,57.4,93,68,45,30.02,29.79,6,1,13,23.86
2013-9-4,81.6,70.8,59.5,61.8,57.1,49.5,88,64,33,30.14,30.02,5,1,10,23.86
2013-9-5,84.1,73.5,61.2,65.7,60.4,53.8,91,65,48,30.17,30.06,2,0,7,23.86
2013-9-6,75.2,66.2,57.2,53.6,50.3,44.9,76,58,36,30.30,30.18,4,1,12,23.86
2013-9-7,80.1,68.5,55.7,65.9,59.4,52.0,93,74,54,30.19,29.99,1,0,8,23.86
2013-9-8,86.9,76.3,66.5,68.8,65.6,62.2,92,71,50,30.10,29.93,3,0,10,23.86
2013-9-9,78.6,72.1,63.7,70.4,60.0,50.4,88,66,52,30.25,30.10,5,1,11,23.86
2013-9-10,90.8,80.5,72.8,76.8,73.7,70.4,96,81,61,30.23,30.14,4,1,11,23.86
2013-9-11,92.6,82.8,74.2,78.2,74.5,72.3,97,77,53,30.20,30.06,0,0,0,23.86
2013-9-12,90.5,78.1,71.6,77.7,72.7,70.2,99,85,62,30.06,29.81,2,0,8,24.68
2013-9-13,77.5,70.3,61.8,71.5,60.1,51.4,99,73,43,30.00,29.77,5,0,13,24.68
2013-9-14,68.9,60.9,54.4,51.8,47.7,44.9,78,63,42,30.20,29.99,5,0,12,24.68
2013-9-15,75.7,63.6,49.6,60.0,53.5,46.3,94,71,50,30.28,30.14,1,0,5,24.68
2013-9-16,72.0,65.0,59.2,64.4,59.3,55.2,97,82,62,30.27,30.09,4,0,12,24.70
2013-9-17,67.3,58.9,51.6,57.0,47.3,38.6,91,67,36,30.47,30.28,6,1,13,24.71
2013-9-18,69.8,58.8,47.1,53.7,47.8,43.7,93,69,41,30.39,30.23,0,0,0,24.71
2013-9-19,76.9,65.2,53.2,61.6,56.5,49.8,94,75,57,30.25,30.13,0,0,0,24.71
2013-9-20,78.2,67.3,57.0,63.9,60.1,54.4,95,79,60,30.14,30.01,0,0,0,24.71
2013-9-21,74.6,68.1,62.7,68.8,64.0,59.3,99,87,73,30.02,29.75,4,0,13,25.87
2013-9-22,71.2,64.4,56.2,63.5,56.6,49.9,99,78,54,30.00,29.79,0,0,11,25.88
2013-9-23,65.1,57.7,51.9,51.5,47.9,44.5,90,71,48,30.14,30.00,4,0,10,25.88
2013-9-24,70.9,58.3,47.3,52.9,48.6,44.2,94,72,47,30.16,30.00,4,0,9,25.88
2013-9-25,72.5,60.6,51.1,58.8,50.9,42.8,93,73,35,30.04,29.94,0,0,2,25.88
2013-9-26,74.5,63.4,55.7,55.7,53.6,51.1,92,73,46,30.13,29.98,0,0,0,25.88
2013-9-27,72.2,62.7,54.6,62.9,57.7,51.5,96,84,66,30.28,30.12,2,0,8,25.88
2013-9-28,68.3,62.0,57.2,58.5,56.0,54.3,96,82,63,30.35,30.28,0,0,0,25.88
2013-9-30,73.3,65.6,59.4,59.6,57.2,54.9,85,75,57,30.09,30.03,0,0,0,25.88
2013-10-1,80.0,67.7,57.4,65.5,60.0,54.5,97,78,49,30.13,30.03,0,0,0,25.88
2013-10-2,83.4,71.0,59.7,66.8,61.3,57.5,95,74,47,30.14,30.06,0,0,0,25.88
2013-10-3,81.7,71.7,62.3,69.3,64.5,59.4,95,79,61,30.17,30.10,0,0,0,25.88
2013-10-4,84.8,73.4,63.0,71.4,65.5,60.9,98,78,49,30.15,30.07,0,0,0,25.88
2013-10-5,86.9,76.0,66.8,71.0,67.9,64.5,96,77,55,30.15,30.06,0,0,0,25.88
2013-10-6,86.5,76.0,66.9,72.5,68.0,64.8,97,78,51,30.08,29.97,4,0,15,25.88
2013-10-7,74.8,67.0,54.8,73.6,64.2,50.7,98,91,79,30.10,29.85,2,0,10,26.70
2013-10-8,67.2,57.7,49.4,53.1,49.5,46.9,93,76,49,30.33,30.11,7,1,12,26.71
2013-10-9,62.5,56.9,53.2,54.4,51.4,47.9,95,82,68,30.36,30.26,5,0,10,26.87
2013-10-10,58.0,55.7,53.7,58.0,55.3,52.6,100,99,95,30.25,30.04,0,0,0,28.41
2013-10-11,63.2,60.3,57.2,63.2,60.3,57.2,100,100,100,30.04,29.99,0,0,0,29.90
2013-10-12,67.5,63.7,62.1,63.7,62.2,59.7,100,95,80,30.20,30.03,6,1,15,30.93
2013-10-13,62.8,61.5,60.1,61.7,60.3,58.7,98,96,87,30.33,30.20,5,1,15,30.96
2013-10-15,60.6,59.6,58.5,60.6,59.3,57.7,100,99,97,29.72,29.70,1,0,3,0.00
2013-10-16,69.7,63.7,59.6,68.4,63.3,59.6,100,99,93,29.70,29.53,1,0,7,0.00
2013-10-17,73.3,65.7,59.1,70.5,64.7,59.1,100,97,85,29.54,29.35,5,0,17,0.00
2013-10-18,62.6,55.7,48.2,59.7,49.7,46.7,100,81,61,29.64,29.44,5,0,14,0.00
2013-10-19,63.8,55.0,45.7,61.1,54.4,45.7,100,98,87,29.62,29.41,3,0,13,0.00
2013-10-20,59.6,50.6,42.6,52.0,43.4,39.6,100,78,55,29.71,29.49,5,1,14,0.00
2013-10-21,63.1,50.9,39.3,51.5,46.2,39.3,100,86,59,29.76,29.58,3,0,12,0.00
2013-10-22,62.1,53.0,45.7,57.0,50.1,45.6,100,90,74,29.58,29.44,3,0,10,0.00
2013-10-23,55.3,48.2,41.6,45.6,42.6,40.0,97,82,57,29.53,29.28,5,1,12,0.00
2013-10-24,50.7,42.3,35.6,39.7,35.5,31.8,99,78,52,29.75,29.53,5,1,15,0.00
2013-10-25,51.8,40.9,32.1,40.0,35.1,31.6,100,81,61,29.93,29.75,5,1,21,0.00
2013-10-26,52.9,42.6,30.6,40.2,34.7,30.2,100,76,53,29.92,29.56,4,1,17,0.00
2013-10-27,57.6,47.3,38.2,44.3,40.6,36.7,100,79,57,29.76,29.58,6,0,17,0.00
2013-10-28,59.9,44.5,36.8,47.1,41.3,36.8,100,90,59,29.89,29.75,1,0,5,0.00
2013-10-29,60.3,48.5,39.1,49.6,44.7,39.1,100,88,64,29.99,29.88,3,0,8,0.00
2013-10-30,62.4,54.3,47.3,60.0,53.7,47.0,100,98,89,29.93,29.76,3,0,10,0.01
2013-10-31,67.1,60.6,53.4,65.4,60.1,53.4,100,98,93,29.80,29.40,4,0,17,0.01
2013-11-1,70.6,65.3,57.7,67.8,63.7,57.7,100,95,79,29.40,29.22,7,1,22,0.15
2013-11-2,65.2,55.9,48.1,57.5,50.2,42.6,100,83,60,29.50,29.27,7,0,14,0.15
2013-11-3,53.8,46.7,39.0,44.7,37.4,29.7,98,72,41,30.05,29.50,7,2,18,0.15
2013-11-4,44.2,37.7,29.3,31.0,27.8,24.9,90,68,48,30.23,30.05,5,1,10,0.15
2013-11-5,55.0,45.6,34.6,50.0,41.7,30.7,97,86,78,30.21,30.07,3,0,7,0.15
2013-11-6,66.8,56.3,48.9,58.6,53.9,48.9,100,92,73,30.07,29.69,3,0,12,0.15
2013-11-7,59.2,52.6,42.0,59.1,49.2,29.0,100,89,57,29.69,29.51,7,2,24,0.18
2013-11-8,49.1,40.4,32.6,35.3,30.7,28.6,87,69,47,29.93,29.69,7,1,18,0.18
2013-11-9,52.3,41.5,28.5,36.4,32.7,27.5,100,73,50,29.96,29.65,7,1,16,0.18
2013-11-10,61.1,47.0,38.5,45.7,35.5,31.4,81,66,42,29.84,29.58,9,1,22,0.18
2013-11-11,55.6,46.0,34.2,38.6,34.6,30.2,91,66,47,29.91,29.62,4,1,13,0.18
2013-11-12,50.4,39.6,28.4,42.2,27.5,17.9,78,62,49,30.01,29.59,9,3,23,0.18
2013-11-13,40.2,32.3,25.9,26.5,22.9,20.3,85,69,51,30.09,30.00,7,1,18,0.18
2013-11-14,54.6,37.3,24.7,31.3,24.4,19.6,83,62,33,29.99,29.83,2,0,8,0.18
2013-11-15,58.5,42.7,28.4,45.9,31.8,25.3,98,69,35,29.89,29.80,2,0,9,0.23
2013-11-16,51.2,48.3,43.2,51.2,48.3,43.2,100,100,100,29.93,29.84,3,1,9,0.58
2013-11-17,60.2,55.9,50.3,60.2,55.9,50.3,100,100,100,29.83,29.37,3,1,15,0.59
2013-11-18,64.9,56.8,47.6,61.5,44.6,32.7,100,68,32,29.57,29.33,8,2,20,0.80
2013-11-19,47.6,42.0,36.3,34.2,31.5,29.4,76,66,59,29.97,29.57,9,2,20,0.80
2013-11-20,44.8,36.3,30.3,31.6,28.3,26.2,91,74,49,30.16,29.97,6,1,12,0.80
2013-11-21,48.3,40.3,29.7,42.8,36.8,28.4,100,87,76,30.17,29.99,4,0,7,0.80
2013-11-22,61.0,54.1,45.1,57.0,51.9,42.5,100,92,84,29.99,29.62,5,1,13,0.80
2013-11-23,56.4,42.7,30.8,52.9,31.9,17.4,90,66,48,29.83,29.66,8,4,31,0.80
2013-11-24,30.8,25.8,21.9,15.3,9.5,5.3,64,50,41,30.12,29.83,9,3,22,0.80
2013-11-25,34.6,27.0,18.3,17.3,13.8,10.3,76,58,44,30.16,29.94,3,0,11,0.80
2013-11-26,40.4,34.7,32.6,40.4,30.3,16.9,100,86,51,29.93,29.25,7,1,15,2.43
2013-11-27,38.7,35.5,27.4,38.1,33.7,18.4,100,93,68,29.66,29.15,10,4,28,3.01
2013-11-28,35.6,29.4,24.2,26.3,20.7,15.9,88,70,56,30.07,29.66,6,1,18,3.01
2013-11-29,39.2,31.2,23.3,26.4,23.9,21.2,94,75,57,30.32,30.06,6,1,15,3.01
2013-11-30,36.2,29.4,22.1,27.5,23.5,19.9,93,79,60,30.32,29.97,3,0,8,3.01
2013-12-1,48.1,36.0,23.6,35.6,30.3,22.6,100,81,59,29.97,29.63,2,0,8,3.01
2013-12-2,47.6,42.5,39.3,42.1,39.1,35.1,96,88,79,29.63,29.49,1,0,4,3.01
2013-12-3,53.6,43.7,37.2,44.5,40.5,36.4,100,89,68,29.60,29.50,1,0,9,3.01
2013-12-4,55.0,47.7,38.3,53.6,47.0,38.3,100,97,89,29.69,29.60,3,0,8,3.01
2013-12-5,67.9,59.5,52.8,64.9,59.0,52.8,100,98,88,29.68,29.55,5,1,19,3.01
2013-12-6,64.1,49.2,37.3,64.1,49.2,37.3,100,100,100,29.79,29.50,9,3,20,3.90
2013-12-7,40.0,35.9,29.2,37.2,32.5,24.7,100,88,73,30.15,29.75,7,3,18,4.09
2013-12-8,30.5,28.1,26.4,30.5,26.1,21.3,100,93,76,30.18,29.89,4,1,9,4.10
2013-12-9,33.1,31.6,30.4,33.1,31.6,30.4,100,100,100,29.91,29.67,1,0,3,4.95
2013-12-10,34.0,30.7,23.7,34.0,30.7,23.7,100,100,100,29.83,29.60,3,0,10,5.13
2013-12-11,33.7,24.4,19.9,28.8,23.7,19.9,100,97,82,29.95,29.83,2,0,4,5.28
2013-12-12,28.5,24.3,19.1,25.2,18.2,15.1,100,78,59,30.03,29.85,5,1,20,5.28
2013-12-13,38.9,29.4,20.1,27.8,22.4,16.1,91,76,56,29.91,29.83,4,0,12,5.34
2013-12-14,37.9,33.9,30.0,36.9,32.4,26.9,100,94,87,29.92,29.33,6,1,12,6.01
2013-12-15,43.8,35.2,27.8,41.3,32.3,24.8,100,90,73,29.56,29.25,7,1,16,6.06
2013-12-16,34.5,32.9,29.0,30.2,27.9,25.2,96,82,74,29.79,29.56,4,1,9,6.06
2013-12-17,38.4,35.1,32.5,36.5,33.0,28.2,100,92,84,29.77,29.54,4,0,13,6.06
2013-12-18,39.1,32.5,26.4,33.4,27.4,23.7,100,82,62,29.82,29.61,5,1,13,6.06
2013-12-19,56.9,40.2,25.7,37.4,31.1,23.5,97,73,47,29.81,29.69,4,1,13,6.06
2013-12-20,57.7,51.4,42.7,47.1,38.9,32.7,73,63,51,29.72,29.62,5,1,17,6.06
2013-12-21,68.8,60.3,50.8,65.6,55.5,45.2,98,85,72,29.64,29.52,8,2,23,6.06
2013-12-22,69.4,63.7,60.8,67.6,63.4,60.8,100,99,87,29.63,29.44,7,2,25,6.34
2013-12-23,61.7,53.4,37.3,61.7,51.6,31.7,100,94,78,29.85,29.53,5,1,15,7.14
2013-12-24,37.3,33.0,29.9,30.6,27.5,25.6,87,80,70,29.86,29.82,6,1,12,7.14
2013-12-29,45.9,43.2,38.3,45.9,43.2,38.3,100,100,100,29.45,29.19,4,1,10,8.40
2013-12-30,43.6,37.3,31.9,41.7,33.9,24.6,100,88,74,29.79,29.44,7,1,18,8.40
2013-12-31,44.2,33.7,27.4,33.8,25.0,19.9,88,71,53,29.93,29.72,9,2,24,8.40
2014-1-1,44.3,33.9,25.2,33.9,27.9,20.1,94,79,61,30.02,29.73,4,0,12,8.40
2014-1-2,36.3,32.0,28.8,35.3,31.7,28.8,100,99,94,29.73,29.24,4,0,9,8.41